createdAt,value
2018-03-25T00:02:17.553Z,5.05
2018-03-25T00:04:43.786Z,4.97
2018-03-25T00:07:10.038Z,4.99
2018-03-25T00:09:36.308Z,5.02
2018-03-25T00:12:02.570Z,5.00
2018-03-25T00:14:28.826Z,4.98
2018-03-25T00:16:56.230Z,5.04
2018-03-25T00:19:22.483Z,5.10
2018-03-25T00:21:48.737Z,5.17
2018-03-25T00:24:15.024Z,5.19
2018-03-25T00:26:41.262Z,5.23
2018-03-25T00:29:07.510Z,5.24
2018-03-25T00:31:33.797Z,5.25
2018-03-25T00:34:00.050Z,5.30
2018-03-25T00:36:26.428Z,5.26
2018-03-25T00:38:52.749Z,5.25
2018-03-25T00:41:19.038Z,5.23
2018-03-25T00:43:45.280Z,5.14
2018-03-25T00:46:11.548Z,5.06
2018-03-25T00:48:39.878Z,4.99
2018-03-25T00:51:06.133Z,4.99
2018-03-25T00:53:32.469Z,4.93
2018-03-25T00:55:58.751Z,4.88
2018-03-25T00:58:25.028Z,4.91
2018-03-25T01:00:51.361Z,4.86
2018-03-25T01:03:17.587Z,4.87
2018-03-25T01:05:43.821Z,4.76
2018-03-25T01:08:10.116Z,4.74
2018-03-25T01:10:36.358Z,4.65
2018-03-25T01:13:02.592Z,4.62
2018-03-25T01:15:41.077Z,4.63
2018-03-25T01:18:07.359Z,4.65
2018-03-25T01:20:33.645Z,4.66
2018-03-25T01:23:00.021Z,4.63
2018-03-25T01:25:26.273Z,4.62
2018-03-25T01:27:52.553Z,4.58
2018-03-25T01:30:18.810Z,4.54
2018-03-25T01:32:45.093Z,4.57
2018-03-25T01:35:11.331Z,4.45
2018-03-25T01:37:37.605Z,4.50
2018-03-25T01:40:03.867Z,4.47
2018-03-25T01:42:30.178Z,4.48
2018-03-25T01:44:56.437Z,4.45
2018-03-25T01:47:22.779Z,4.40
2018-03-25T01:49:49.092Z,4.35
2018-03-25T01:52:15.352Z,4.36
2018-03-25T01:54:41.809Z,4.28
2018-03-25T01:57:08.069Z,4.21
2018-03-25T01:59:34.340Z,4.18
2018-03-25T02:02:00.725Z,4.13
2018-03-25T02:04:27.038Z,4.09
2018-03-25T02:06:53.374Z,4.06
2018-03-25T02:09:19.632Z,4.04
2018-03-25T02:11:45.918Z,4.04
2018-03-25T02:14:12.251Z,3.97
2018-03-25T02:16:38.522Z,3.95
2018-03-25T02:19:04.836Z,3.96
2018-03-25T02:21:31.165Z,3.95
2018-03-25T02:23:57.398Z,3.94
2018-03-25T02:26:23.803Z,3.92
2018-03-25T02:28:50.128Z,3.90
2018-03-25T02:31:16.414Z,3.86
2018-03-25T02:33:42.701Z,3.82
2018-03-25T02:36:09.032Z,3.74
2018-03-25T02:38:35.369Z,3.73
2018-03-25T02:41:01.678Z,3.69
2018-03-25T02:43:27.952Z,3.69
2018-03-25T02:45:54.236Z,3.65
2018-03-25T02:48:20.530Z,3.65
2018-03-25T02:50:46.792Z,3.58
2018-03-25T02:53:13.080Z,3.57
2018-03-25T02:55:39.398Z,3.57
2018-03-25T02:58:05.680Z,3.54
2018-03-25T03:00:32.077Z,3.53
2018-03-25T03:02:58.407Z,3.48
2018-03-25T03:05:24.707Z,3.52
2018-03-25T03:07:50.974Z,3.53
2018-03-25T03:10:18.265Z,3.52
2018-03-25T03:12:44.525Z,3.52
2018-03-25T03:15:10.813Z,3.48
2018-03-25T03:17:37.117Z,3.48
2018-03-25T03:20:03.427Z,3.46
2018-03-25T03:22:29.728Z,3.43
2018-03-25T03:24:56.009Z,3.39
2018-03-25T03:27:22.514Z,3.37
2018-03-25T03:29:48.765Z,3.41
2018-03-25T03:32:15.050Z,3.31
2018-03-25T03:34:41.634Z,3.25
2018-03-25T03:37:07.889Z,3.19
2018-03-25T03:39:34.247Z,3.14
2018-03-25T03:42:00.562Z,3.10
2018-03-25T03:44:26.816Z,3.11
2018-03-25T03:46:53.386Z,3.09
2018-03-25T03:49:19.687Z,3.10
2018-03-25T03:51:46.159Z,3.10
2018-03-25T03:54:12.625Z,3.17
2018-03-25T03:56:38.929Z,3.21
2018-03-25T03:59:05.564Z,3.29
2018-03-25T04:01:31.849Z,3.28
2018-03-25T04:03:58.185Z,3.26
2018-03-25T04:06:24.533Z,3.31
2018-03-25T04:08:50.801Z,3.36
2018-03-25T04:11:17.496Z,3.46
2018-03-25T04:13:43.753Z,3.63
2018-03-25T04:16:10.148Z,3.71
2018-03-25T04:18:36.602Z,3.83
2018-03-25T04:21:02.926Z,4.00
2018-03-25T04:23:29.630Z,4.02
2018-03-25T04:25:55.876Z,3.99
2018-03-25T04:28:22.254Z,4.07
2018-03-25T04:30:48.645Z,4.11
2018-03-25T04:33:15.870Z,4.09
2018-03-25T04:35:42.560Z,4.14
2018-03-25T04:38:08.832Z,4.06
2018-03-25T04:40:35.405Z,4.06
2018-03-25T04:43:01.686Z,4.10
2018-03-25T04:45:28.023Z,4.12
2018-03-25T04:47:54.476Z,4.13
2018-03-25T04:50:20.745Z,4.07
2018-03-25T04:52:47.290Z,4.07
2018-03-25T04:55:13.562Z,4.00
2018-03-25T04:57:39.814Z,4.01
2018-03-25T05:00:06.321Z,4.10
2018-03-25T05:02:32.576Z,4.08
2018-03-25T05:04:59.069Z,4.03
2018-03-25T05:07:25.344Z,3.98
2018-03-25T05:09:51.585Z,4.06
2018-03-25T05:12:18.164Z,4.03
2018-03-25T05:14:44.424Z,4.09
2018-03-25T05:17:10.910Z,4.07
2018-03-25T05:19:37.174Z,4.09
2018-03-25T05:22:03.440Z,4.09
2018-03-25T05:24:29.719Z,4.20
2018-03-25T05:26:55.960Z,4.28
2018-03-25T05:29:22.226Z,4.37
2018-03-25T05:31:48.485Z,4.40
2018-03-25T05:34:14.746Z,4.43
2018-03-25T05:36:40.988Z,4.49
2018-03-25T05:39:07.257Z,4.62
2018-03-25T05:41:33.504Z,4.67
2018-03-25T05:43:59.770Z,4.70
2018-03-25T05:46:26.041Z,4.77
2018-03-25T05:48:52.281Z,4.92
2018-03-25T05:51:18.641Z,5.05
2018-03-25T05:53:44.884Z,5.19
2018-03-25T05:56:11.206Z,5.34
2018-03-25T05:58:37.465Z,5.48
2018-03-25T06:01:03.839Z,5.58
2018-03-25T06:03:30.080Z,5.60
2018-03-25T06:05:56.489Z,5.76
2018-03-25T06:08:22.774Z,5.91
2018-03-25T06:10:49.018Z,6.03
2018-03-25T06:13:15.300Z,6.14
2018-03-25T06:15:41.536Z,6.31
2018-03-25T06:18:07.808Z,6.52
2018-03-25T06:20:34.067Z,6.76
2018-03-25T06:23:00.412Z,6.94
2018-03-25T06:25:26.662Z,7.07
2018-03-25T06:27:52.932Z,7.19
2018-03-25T06:30:19.187Z,7.14
2018-03-25T06:32:45.444Z,7.37
2018-03-25T06:35:11.704Z,7.57
2018-03-25T06:37:38.805Z,7.73
2018-03-25T06:40:05.114Z,7.96
2018-03-25T06:42:31.352Z,8.12
2018-03-25T06:44:57.634Z,8.32
2018-03-25T06:47:23.864Z,8.38
2018-03-25T06:49:50.092Z,8.63
2018-03-25T06:52:16.370Z,8.79
2018-03-25T06:54:42.600Z,8.84
2018-03-25T06:57:08.913Z,8.80
2018-03-25T06:59:35.162Z,8.97
2018-03-25T07:02:01.446Z,9.30
2018-03-25T07:04:32.492Z,9.62
2018-03-25T07:06:58.744Z,9.65
2018-03-25T07:09:25.057Z,9.85
2018-03-25T07:11:51.380Z,10.02
2018-03-25T07:14:17.633Z,10.14
2018-03-25T07:16:43.924Z,10.37
2018-03-25T07:19:10.201Z,10.78
2018-03-25T07:21:36.472Z,10.86
2018-03-25T07:24:02.729Z,11.09
2018-03-25T07:26:28.980Z,11.39
2018-03-25T07:28:55.264Z,11.59
2018-03-25T07:31:21.496Z,11.76
2018-03-25T07:33:47.721Z,12.15
2018-03-25T07:36:14.061Z,12.18
2018-03-25T07:38:40.321Z,12.14
2018-03-25T07:41:06.609Z,12.08
2018-03-25T07:43:32.867Z,12.43
2018-03-25T07:45:59.154Z,12.63
2018-03-25T07:48:25.420Z,12.75
2018-03-25T07:50:51.708Z,13.01
2018-03-25T07:53:17.947Z,13.50
2018-03-25T07:55:44.193Z,13.94
2018-03-25T07:58:10.521Z,14.43
2018-03-25T08:00:36.768Z,14.62
2018-03-25T08:03:04.128Z,15.35
2018-03-25T08:05:30.402Z,15.97
2018-03-25T08:07:56.721Z,16.53
2018-03-25T08:10:22.980Z,17.18
2018-03-25T08:12:49.258Z,17.71
2018-03-25T08:15:15.573Z,18.46
2018-03-25T08:17:41.914Z,19.06
2018-03-25T08:20:08.216Z,19.76
2018-03-25T08:22:34.545Z,19.88
2018-03-25T08:25:00.820Z,20.42
2018-03-25T08:27:27.076Z,20.72
2018-03-25T08:29:53.391Z,20.84
2018-03-25T08:32:19.758Z,21.06
2018-03-25T08:34:46.024Z,21.35
2018-03-25T08:37:12.417Z,21.20
2018-03-25T08:39:38.661Z,21.08
2018-03-25T08:42:05.008Z,21.04
2018-03-25T08:44:31.241Z,21.60
2018-03-25T08:46:57.617Z,22.03
2018-03-25T08:49:23.881Z,22.27
2018-03-25T08:51:50.226Z,22.45
2018-03-25T08:54:16.553Z,22.47
2018-03-25T08:56:42.857Z,22.80
2018-03-25T08:59:09.735Z,23.01
2018-03-25T09:01:35.986Z,22.57
2018-03-25T09:04:02.278Z,22.72
2018-03-25T09:06:28.569Z,22.23
2018-03-25T09:08:54.888Z,21.88
2018-03-25T09:11:21.208Z,21.16
2018-03-25T09:13:47.485Z,21.21
2018-03-25T09:16:13.776Z,22.12
2018-03-25T09:18:40.072Z,22.38
2018-03-25T09:21:06.329Z,22.35
2018-03-25T09:23:32.588Z,22.63
2018-03-25T09:25:58.867Z,22.69
2018-03-25T09:28:25.136Z,23.04
2018-03-25T09:30:51.429Z,23.53
2018-03-25T09:33:17.681Z,23.66
2018-03-25T09:35:43.974Z,23.34
2018-03-25T09:38:10.225Z,23.27
2018-03-25T09:40:36.561Z,23.49
2018-03-25T09:43:02.837Z,24.16
2018-03-25T09:45:29.136Z,24.23
2018-03-25T09:47:55.434Z,24.36
2018-03-25T09:50:21.693Z,24.35
2018-03-25T09:52:47.981Z,24.04
2018-03-25T09:55:14.265Z,23.76
2018-03-25T09:57:40.571Z,23.80
2018-03-25T10:00:06.866Z,23.71
2018-03-25T10:02:39.183Z,24.02
2018-03-25T10:05:05.442Z,23.73
2018-03-25T10:07:31.819Z,23.85
2018-03-25T10:09:58.080Z,23.93
2018-03-25T10:12:24.342Z,24.05
2018-03-25T10:14:50.618Z,24.39
2018-03-25T10:17:16.881Z,24.57
2018-03-25T10:19:43.137Z,24.29
2018-03-25T10:22:09.444Z,23.98
2018-03-25T10:24:35.696Z,23.54
2018-03-25T10:27:04.180Z,23.90
2018-03-25T10:29:30.531Z,24.30
2018-03-25T10:31:56.785Z,24.44
2018-03-25T10:34:23.057Z,24.71
2018-03-25T10:36:49.353Z,24.78
2018-03-25T10:39:15.622Z,25.32
2018-03-25T10:41:41.880Z,25.85
2018-03-25T10:44:08.242Z,26.26
2018-03-25T10:46:34.640Z,26.26
2018-03-25T10:49:01.145Z,26.73
2018-03-25T10:51:27.509Z,26.36
2018-03-25T10:53:53.801Z,26.04
2018-03-25T10:56:20.169Z,26.24
2018-03-25T10:58:46.504Z,26.19
2018-03-25T11:01:12.844Z,26.70
2018-03-25T11:03:39.218Z,26.85
2018-03-25T11:06:05.461Z,26.95
2018-03-25T11:08:31.849Z,27.28
2018-03-25T11:10:58.148Z,27.88
2018-03-25T11:13:24.426Z,28.37
2018-03-25T11:15:50.673Z,28.10
2018-03-25T11:18:17.121Z,28.15
2018-03-25T11:20:43.422Z,27.97
2018-03-25T11:23:09.933Z,28.09
2018-03-25T11:25:36.230Z,27.77
2018-03-25T11:28:02.511Z,28.21
2018-03-25T11:30:28.878Z,28.77
2018-03-25T11:32:55.625Z,28.72
2018-03-25T11:35:22.304Z,29.48
2018-03-25T11:37:48.612Z,29.95
2018-03-25T11:40:14.972Z,30.17
2018-03-25T11:42:41.215Z,29.58
2018-03-25T11:45:07.700Z,29.94
2018-03-25T11:47:34.026Z,29.15
2018-03-25T11:50:00.565Z,29.36
2018-03-25T11:52:26.993Z,29.82
2018-03-25T11:54:53.228Z,29.95
2018-03-25T11:57:19.550Z,30.55
2018-03-25T11:59:45.824Z,30.82
2018-03-25T12:02:12.248Z,30.85
2018-03-25T12:04:38.577Z,31.51
2018-03-25T12:07:05.067Z,30.46
2018-03-25T12:09:31.354Z,30.63
2018-03-25T12:11:57.878Z,30.74
2018-03-25T12:14:24.184Z,31.86
2018-03-25T12:16:50.453Z,32.52
2018-03-25T12:19:16.786Z,32.39
2018-03-25T12:21:43.064Z,31.89
2018-03-25T12:24:09.307Z,31.68
2018-03-25T12:26:35.905Z,31.77
2018-03-25T12:29:02.156Z,31.60
2018-03-25T12:31:28.577Z,30.94
2018-03-25T12:33:54.935Z,31.31
2018-03-25T12:36:21.341Z,31.72
2018-03-25T12:38:47.576Z,32.17
2018-03-25T12:41:13.853Z,32.49
2018-03-25T12:43:40.124Z,31.63
2018-03-25T12:46:06.508Z,29.44
2018-03-25T12:48:32.877Z,30.37
2018-03-25T12:50:59.128Z,31.24
2018-03-25T12:53:25.507Z,32.00
2018-03-25T12:55:51.790Z,32.22
2018-03-25T12:58:18.246Z,32.21
2018-03-25T13:00:44.515Z,31.40
2018-03-25T13:03:10.895Z,31.02
2018-03-25T13:05:37.188Z,30.91
2018-03-25T13:08:03.469Z,31.80
2018-03-25T13:10:29.720Z,31.22
2018-03-25T13:12:56.352Z,31.65
2018-03-25T13:15:22.629Z,31.97
2018-03-25T13:17:49.045Z,32.33
2018-03-25T13:20:15.343Z,32.64
2018-03-25T13:22:41.725Z,32.53
2018-03-25T13:25:08.074Z,33.15
2018-03-25T13:27:34.389Z,33.47
2018-03-25T13:30:00.860Z,33.61
2018-03-25T13:32:27.171Z,33.68
2018-03-25T13:34:53.641Z,33.39
2018-03-25T13:37:19.928Z,33.76
2018-03-25T13:39:46.289Z,32.85
2018-03-25T13:42:12.626Z,32.47
2018-03-25T13:44:39.017Z,32.10
2018-03-25T13:47:05.304Z,30.77
2018-03-25T13:49:31.584Z,28.91
2018-03-25T13:51:58.131Z,29.67
2018-03-25T13:54:24.523Z,30.31
2018-03-25T13:56:50.873Z,28.43
2018-03-25T13:59:17.178Z,26.93
2018-03-25T14:01:43.709Z,28.18
2018-03-25T14:04:09.961Z,29.53
2018-03-25T14:06:36.385Z,29.98
2018-03-25T14:09:02.701Z,29.81
2018-03-25T14:11:29.151Z,28.85
2018-03-25T14:13:55.472Z,28.74
2018-03-25T14:16:21.888Z,28.87
2018-03-25T14:18:48.198Z,28.83
2018-03-25T14:21:14.465Z,27.95
2018-03-25T14:23:40.910Z,25.75
2018-03-25T14:26:07.165Z,24.18
2018-03-25T14:28:33.548Z,25.42
2018-03-25T14:30:59.847Z,26.70
2018-03-25T14:33:26.133Z,27.47
2018-03-25T14:35:52.409Z,27.89
2018-03-25T14:38:18.781Z,28.29
2018-03-25T14:40:45.069Z,28.32
2018-03-25T14:43:11.358Z,28.15
2018-03-25T14:45:37.633Z,28.08
2018-03-25T14:48:04.130Z,28.78
2018-03-25T14:50:30.456Z,29.42
2018-03-25T14:52:56.804Z,29.46
2018-03-25T14:55:23.118Z,29.32
2018-03-25T14:57:49.403Z,29.28
2018-03-25T15:00:15.914Z,29.31
2018-03-25T15:02:42.191Z,29.36
2018-03-25T15:05:08.636Z,28.97
2018-03-25T15:07:34.934Z,28.64
2018-03-25T15:10:01.449Z,28.84
2018-03-25T15:12:27.765Z,29.01
2018-03-25T15:14:54.078Z,28.56
2018-03-25T15:17:20.410Z,27.85
2018-03-25T15:19:46.881Z,27.91
2018-03-25T15:22:13.186Z,27.44
2018-03-25T15:24:40.007Z,27.02
2018-03-25T15:27:06.349Z,26.85
2018-03-25T15:29:32.641Z,26.28
2018-03-25T15:31:58.955Z,25.90
2018-03-25T15:34:25.277Z,25.48
2018-03-25T15:36:51.575Z,25.39
2018-03-25T15:39:18.096Z,25.16
2018-03-25T15:41:44.345Z,24.87
2018-03-25T15:44:10.875Z,24.29
2018-03-25T15:46:37.164Z,24.02
2018-03-25T15:49:03.559Z,23.55
2018-03-25T15:51:29.831Z,23.26
2018-03-25T15:53:56.132Z,23.16
2018-03-25T15:56:22.588Z,22.64
2018-03-25T15:58:48.863Z,22.25
2018-03-25T16:01:15.163Z,21.97
2018-03-25T16:03:41.433Z,21.94
2018-03-25T16:06:07.683Z,21.49
2018-03-25T16:08:34.048Z,21.07
2018-03-25T16:11:00.336Z,20.57
2018-03-25T16:13:26.598Z,19.75
2018-03-25T16:15:52.887Z,19.01
2018-03-25T16:18:19.184Z,18.52
2018-03-25T16:20:45.559Z,18.22
2018-03-25T16:23:11.852Z,17.62
2018-03-25T16:25:38.130Z,17.08
2018-03-25T16:28:04.503Z,16.65
2018-03-25T16:30:30.768Z,16.31
2018-03-25T16:32:57.037Z,16.17
2018-03-25T16:35:23.337Z,16.05
2018-03-25T16:37:49.606Z,15.62
2018-03-25T16:40:15.929Z,15.44
2018-03-25T16:42:42.165Z,15.12
2018-03-25T16:45:08.425Z,14.89
2018-03-25T16:47:34.696Z,14.49
2018-03-25T16:50:00.972Z,14.25
2018-03-25T16:52:27.694Z,14.14
2018-03-25T16:54:54.100Z,13.93
2018-03-25T16:57:20.463Z,13.67
2018-03-25T16:59:46.692Z,13.57
2018-03-25T17:02:13.064Z,13.47
2018-03-25T17:04:39.313Z,13.46
2018-03-25T17:07:05.581Z,13.51
2018-03-25T17:09:31.925Z,13.40
2018-03-25T17:11:58.177Z,13.26
2018-03-25T17:14:24.508Z,13.19
2018-03-25T17:16:50.776Z,13.03
2018-03-25T17:19:17.080Z,12.85
2018-03-25T17:21:44.330Z,12.75
2018-03-25T17:24:10.624Z,12.72
2018-03-25T17:26:36.967Z,12.69
2018-03-25T17:29:03.339Z,12.58
2018-03-25T17:31:29.726Z,12.45
2018-03-25T17:33:55.996Z,12.26
2018-03-25T17:36:22.285Z,12.28
2018-03-25T17:38:48.545Z,12.10
2018-03-25T17:41:14.886Z,11.87
2018-03-25T17:43:41.373Z,11.70
2018-03-25T17:46:07.674Z,11.79
2018-03-25T17:48:34.104Z,11.75
2018-03-25T17:51:00.397Z,11.73
2018-03-25T17:53:26.702Z,11.72
2018-03-25T17:55:52.962Z,11.55
2018-03-25T17:58:19.348Z,11.54
2018-03-25T18:00:45.649Z,11.50
2018-03-25T18:03:11.929Z,11.44
2018-03-25T18:05:38.495Z,11.41
2018-03-25T18:08:04.806Z,11.42
2018-03-25T18:10:31.116Z,11.31
2018-03-25T18:12:57.479Z,11.23
2018-03-25T18:15:23.742Z,11.15
2018-03-25T18:17:50.070Z,11.19
2018-03-25T18:20:16.408Z,11.09
2018-03-25T18:22:42.875Z,11.04
2018-03-25T18:25:09.244Z,10.99
2018-03-25T18:27:35.623Z,10.84
2018-03-25T18:30:01.868Z,10.80
2018-03-25T18:32:28.169Z,10.84
2018-03-25T18:34:54.480Z,10.77
2018-03-25T18:37:20.787Z,10.74
2018-03-25T18:39:47.123Z,10.48
2018-03-25T18:42:13.396Z,10.38
2018-03-25T18:44:39.910Z,10.24
2018-03-25T18:47:06.168Z,10.23
2018-03-25T18:49:32.420Z,10.24
2018-03-25T18:51:58.793Z,10.22
2018-03-25T18:54:25.065Z,10.14
2018-03-25T18:56:51.293Z,10.03
2018-03-25T18:59:17.568Z,10.01
2018-03-25T19:01:43.807Z,9.90
2018-03-25T19:04:10.053Z,9.95
2018-03-25T19:06:36.341Z,10.01
2018-03-25T19:09:02.700Z,9.94
2018-03-25T19:11:28.948Z,9.90
2018-03-25T19:13:55.253Z,9.78
2018-03-25T19:16:21.506Z,9.68
2018-03-25T19:18:47.747Z,9.62
2018-03-25T19:21:14.254Z,9.59
2018-03-25T19:23:40.701Z,9.60
2018-03-25T19:26:06.937Z,9.55
2018-03-25T19:28:33.326Z,9.55
2018-03-25T19:30:59.773Z,9.56
2018-03-25T19:33:26.028Z,9.53
2018-03-25T19:35:52.309Z,9.50
2018-03-25T19:38:18.589Z,9.50
2018-03-25T19:40:44.885Z,9.39
2018-03-25T19:43:11.210Z,9.29
2018-03-25T19:45:37.626Z,9.21
2018-03-25T19:48:04.078Z,9.22
2018-03-25T19:50:30.852Z,9.20
2018-03-25T19:52:57.506Z,9.15
2018-03-25T19:55:24.056Z,9.13
2018-03-25T19:57:50.478Z,9.10
2018-03-25T20:00:16.770Z,9.08
2018-03-25T20:02:43.013Z,9.10
2018-03-25T20:05:09.249Z,9.07
2018-03-25T20:07:35.665Z,9.04
2018-03-25T20:10:02.068Z,9.04
2018-03-25T20:12:28.357Z,8.95
2018-03-25T20:14:54.768Z,8.89
2018-03-25T20:17:21.136Z,8.86
2018-03-25T20:19:47.388Z,8.77
2018-03-25T20:22:13.639Z,8.73
2018-03-25T20:24:39.888Z,8.71
2018-03-25T20:27:06.220Z,8.66
2018-03-25T20:29:32.620Z,8.63
2018-03-25T20:31:58.879Z,8.61
2018-03-25T20:34:25.218Z,8.60
2018-03-25T20:36:51.562Z,8.59
2018-03-25T20:39:17.825Z,8.56
2018-03-25T20:41:44.201Z,8.51
2018-03-25T20:44:10.596Z,8.54
2018-03-25T20:46:36.844Z,8.50
2018-03-25T20:49:03.144Z,8.50
2018-03-25T20:51:29.676Z,8.45
2018-03-25T20:53:55.933Z,8.48
2018-03-25T20:56:22.369Z,8.47
2018-03-25T20:58:48.625Z,8.40
2018-03-25T21:01:15.017Z,8.32
2018-03-25T21:03:41.381Z,8.26
2018-03-25T21:06:07.941Z,8.24
2018-03-25T21:08:34.194Z,8.23
2018-03-25T21:11:00.958Z,8.24
2018-03-25T21:13:27.373Z,8.21
2018-03-25T21:15:53.718Z,8.16
2018-03-25T21:18:20.039Z,8.16
2018-03-25T21:20:46.301Z,8.16
2018-03-25T21:23:12.700Z,8.23
2018-03-25T21:25:40.070Z,8.22
2018-03-25T21:28:06.450Z,8.25
2018-03-25T21:30:32.702Z,8.26
2018-03-25T21:32:58.944Z,8.29
2018-03-25T21:35:25.342Z,8.29
2018-03-25T21:37:51.609Z,8.27
2018-03-25T21:40:18.892Z,8.23
2018-03-25T21:42:45.172Z,8.13
2018-03-25T21:45:11.627Z,8.07
2018-03-25T21:47:37.911Z,8.05
2018-03-25T21:50:04.579Z,7.98
2018-03-25T21:52:30.820Z,7.92
2018-03-25T21:54:57.383Z,7.84
2018-03-25T21:57:23.738Z,7.80
2018-03-25T21:59:50.136Z,7.77
2018-03-25T22:02:16.584Z,7.69
2018-03-25T22:04:42.910Z,7.62
2018-03-25T22:07:09.275Z,7.55
2018-03-25T22:09:35.609Z,7.55
2018-03-25T22:12:01.894Z,7.47
2018-03-25T22:14:28.164Z,7.41
2018-03-25T22:16:54.527Z,7.35
2018-03-25T22:19:20.801Z,7.34
2018-03-25T22:21:47.265Z,7.34
2018-03-25T22:24:13.570Z,7.34
2018-03-25T22:26:39.949Z,7.35
2018-03-25T22:29:06.233Z,7.33
2018-03-25T22:31:32.537Z,7.30
2018-03-25T22:33:58.826Z,7.25
2018-03-25T22:36:25.096Z,7.22
2018-03-25T22:38:51.789Z,7.21
2018-03-25T22:41:18.054Z,7.18
2018-03-25T22:43:44.459Z,7.13
2018-03-25T22:46:10.903Z,7.13
2018-03-25T22:48:37.155Z,7.15
2018-03-25T22:51:03.745Z,7.10
2018-03-25T22:53:29.981Z,7.14
2018-03-25T22:55:56.309Z,7.18
2018-03-25T22:58:22.562Z,7.19
2018-03-25T23:00:48.897Z,7.23
2018-03-25T23:03:15.298Z,7.26
2018-03-25T23:05:41.584Z,7.25
2018-03-25T23:08:07.848Z,7.24
2018-03-25T23:10:34.204Z,7.20
2018-03-25T23:13:00.521Z,7.20
2018-03-25T23:15:26.838Z,7.24
2018-03-25T23:17:53.089Z,7.23
2018-03-25T23:20:19.357Z,7.22
2018-03-25T23:22:45.608Z,7.24
2018-03-25T23:25:11.868Z,7.30
2018-03-25T23:27:38.121Z,7.31
2018-03-25T23:30:04.420Z,7.28
2018-03-25T23:32:30.668Z,7.24
2018-03-25T23:34:56.959Z,7.26
2018-03-25T23:37:23.192Z,7.27
2018-03-25T23:39:49.437Z,7.34
2018-03-25T23:42:15.738Z,7.35
2018-03-25T23:44:42.001Z,7.40
2018-03-25T23:47:08.273Z,7.44
2018-03-25T23:49:34.535Z,7.43
2018-03-25T23:52:00.795Z,7.42
2018-03-25T23:54:27.052Z,7.45
2018-03-25T23:56:53.383Z,7.45
2018-03-25T23:59:19.641Z,7.50
